Time;durP1;ratioP1;P1;durP2;ratioP2;P2;SDS_P1;SDS_P2;PMS_P1;PMS_P2;Temp;Humidity;BMP_temperature;BMP_pressure;BME280_temperature;BME280_humidity;BME280_pressure;Samples;Min_cycle;Max_cycle;Signal;HPM_P1;HPM_P2
2021/05/11 00:00:01;;;;;;;1.33;1.23;;;24.20;34.70;;;;;;5013236;28;20234;-43
2021/05/11 00:02:27;;;;;;;1.20;1.10;;;24.20;34.60;;;;;;5014122;28;20257;-43
2021/05/11 00:04:53;;;;;;;1.50;1.40;;;24.20;34.50;;;;;;5012840;28;20235;-39
2021/05/11 00:07:19;;;;;;;1.30;1.20;;;24.10;34.40;;;;;;5010042;28;20207;-39
2021/05/11 00:09:45;;;;;;;1.40;1.30;;;24.10;34.40;;;;;;5013274;28;20570;-41
2021/05/11 00:12:11;;;;;;;1.20;1.10;;;24.10;34.40;;;;;;5014061;28;20210;-39
2021/05/11 00:14:37;;;;;;;1.48;1.20;;;24.10;34.40;;;;;;5012778;28;20214;-39
2021/05/11 00:17:03;;;;;;;1.27;1.20;;;24.10;34.40;;;;;;5011617;28;20245;-45
2021/05/11 00:19:29;;;;;;;1.48;1.33;;;24.10;34.50;;;;;;5013989;28;20199;-45
2021/05/11 00:21:55;;;;;;;1.50;1.10;;;24.10;34.50;;;;;;5010904;28;20227;-40
2021/05/11 00:24:21;;;;;;;1.17;1.08;;;24.00;34.40;;;;;;5010990;28;20265;-42
2021/05/11 00:26:47;;;;;;;3.20;1.40;;;24.00;34.40;;;;;;5011031;28;20199;-39
2021/05/11 00:29:13;;;;;;;1.40;1.30;;;24.00;34.40;;;;;;5011205;28;20717;-42
2021/05/11 00:31:39;;;;;;;1.60;1.50;;;24.00;34.30;;;;;;5012232;28;20226;-42
2021/05/11 00:34:05;;;;;;;1.30;1.20;;;24.00;34.30;;;;;;5012562;28;20241;-42
2021/05/11 00:36:31;;;;;;;1.40;1.30;;;24.00;34.40;;;;;;5011353;28;20565;-39
2021/05/11 00:38:57;;;;;;;1.42;1.25;;;24.00;34.40;;;;;;5011187;28;20203;-42
2021/05/11 00:41:23;;;;;;;3.05;1.20;;;24.00;34.40;;;;;;5012398;28;20249;-46
2021/05/11 00:43:49;;;;;;;1.20;1.10;;;24.00;34.30;;;;;;5013112;28;20246;-43
2021/05/11 00:46:16;;;;;;;1.30;1.20;;;24.00;34.30;;;;;;5013686;28;20230;-42
2021/05/11 00:48:42;;;;;;;1.33;1.13;;;24.00;34.40;;;;;;5009701;28;20195;-40
2021/05/11 00:51:08;;;;;;;1.25;1.05;;;24.00;34.20;;;;;;5013373;28;20587;-39
2021/05/11 00:53:34;;;;;;;1.00;1.00;;;24.00;34.30;;;;;;5013481;28;20218;-41
2021/05/11 00:56:00;;;;;;;1.15;1.10;;;23.90;34.20;;;;;;5009303;28;20274;-40
2021/05/11 00:58:26;;;;;;;1.67;1.13;;;24.00;34.20;;;;;;5009935;28;20206;-40
2021/05/11 01:00:52;;;;;;;1.45;1.17;;;24.00;34.90;;;;;;5011419;28;20231;-39
2021/05/11 01:03:18;;;;;;;1.33;1.20;;;23.90;34.20;;;;;;5013227;28;20341;-41
2021/05/11 01:05:44;;;;;;;1.23;1.13;;;23.90;34.20;;;;;;5011351;28;20227;-40
2021/05/11 01:08:10;;;;;;;1.40;1.30;;;23.90;34.20;;;;;;5008521;28;20636;-39
2021/05/11 01:10:36;;;;;;;1.98;1.25;;;23.90;34.20;;;;;;5006586;28;20239;-39
2021/05/11 01:13:02;;;;;;;1.50;1.40;;;23.90;34.20;;;;;;5011828;28;20542;-40
2021/05/11 01:15:28;;;;;;;1.73;1.45;;;23.90;34.20;;;;;;5011091;28;20207;-39
2021/05/11 01:18:00;;;;;;;1.45;1.30;;;23.90;34.20;;;;;;5011681;28;20249;-38
2021/05/11 01:20:29;;;;;;;1.88;1.10;;;23.90;34.20;;;;;;5011195;28;20242;-39
2021/05/11 01:26:00;;;;;;;1.50;1.20;;;23.90;34.30;;;;;;4970414;28;20221;-39
2021/05/11 01:28:31;;;;;;;1.48;1.20;;;23.90;34.20;;;;;;4965351;28;20201;-39
2021/05/11 01:45:02;;;;;;;1.30;1.20;;;24.00;34.10;;;;;;5008931;28;20284;-44
2021/05/11 01:47:47;;;;;;;1.75;1.65;;;24.00;34.10;;;;;;5010322;28;20211;-44
2021/05/11 01:50:19;;;;;;;1.42;1.15;;;24.00;34.10;;;;;;5012110;28;20223;-43
2021/05/11 01:52:55;;;;;;;1.92;1.20;;;24.00;34.20;;;;;;5010471;28;20222;-44
2021/05/11 01:55:36;;;;;;;1.15;1.15;;;24.00;34.20;;;;;;5010345;28;20246;-40
2021/05/11 02:22:49;;;;;;;1.23;1.13;;;23.90;34.10;;;;;;5009114;28;20282;-41
2021/05/11 02:25:15;;;;;;;1.15;1.05;;;23.90;34.00;;;;;;5008225;28;20629;-47
2021/05/11 02:27:41;;;;;;;1.10;1.00;;;23.90;34.10;;;;;;5007528;28;20235;-40
2021/05/11 02:30:08;;;;;;;1.25;1.13;;;23.90;34.10;;;;;;5010887;28;20603;-40
2021/05/11 02:32:34;;;;;;;1.92;1.15;;;23.90;34.10;;;;;;5011247;28;20724;-39
2021/05/11 02:35:00;;;;;;;1.20;0.95;;;23.90;34.10;;;;;;5005854;28;20203;-41
2021/05/11 02:37:26;;;;;;;1.30;1.13;;;23.90;34.10;;;;;;5008751;28;20207;-39
2021/05/11 02:39:52;;;;;;;1.77;1.20;;;23.90;34.00;;;;;;5007667;28;20230;-47
2021/05/11 02:42:18;;;;;;;1.20;1.10;;;23.90;34.00;;;;;;5011758;28;20203;-43
2021/05/11 02:44:45;;;;;;;1.30;1.20;;;23.90;34.00;;;;;;5008601;28;20223;-39
2021/05/11 02:47:11;;;;;;;0.90;0.90;;;23.90;34.00;;;;;;5010015;28;20722;-40
2021/05/11 02:49:40;;;;;;;1.30;1.20;;;23.90;34.00;;;;;;5008497;28;20227;-41
2021/05/11 02:52:06;;;;;;;1.30;1.20;;;23.90;34.00;;;;;;5011797;28;20214;-42
2021/05/11 02:54:32;;;;;;;1.30;1.20;;;23.90;34.20;;;;;;5010422;28;20636;-48
2021/05/11 02:56:58;;;;;;;1.08;1.00;;;23.90;34.10;;;;;;5009708;28;20261;-40
2021/05/11 02:59:24;;;;;;;1.45;1.35;;;23.90;34.00;;;;;;5007166;28;20574;-42
2021/05/11 03:01:50;;;;;;;1.25;1.15;;;23.90;34.00;;;;;;5009378;28;20233;-39
2021/05/11 03:04:16;;;;;;;1.20;1.10;;;23.90;33.90;;;;;;5010283;28;20226;-39
2021/05/11 03:06:42;;;;;;;1.08;1.08;;;23.90;33.90;;;;;;5004846;28;20521;-41
2021/05/11 03:09:08;;;;;;;1.27;1.17;;;23.90;33.80;;;;;;5011616;28;20227;-40
2021/05/11 03:11:34;;;;;;;1.13;1.02;;;23.90;33.80;;;;;;5009607;28;20200;-43
2021/05/11 03:14:00;;;;;;;1.45;1.05;;;23.90;33.70;;;;;;5008775;28;20225;-40
2021/05/11 03:16:27;;;;;;;1.48;1.10;;;23.90;33.80;;;;;;5008568;28;20273;-43
2021/05/11 03:18:53;;;;;;;1.42;1.10;;;23.90;34.00;;;;;;5006273;28;20213;-47
2021/05/11 03:21:19;;;;;;;1.95;1.20;;;23.90;33.80;;;;;;5008948;28;20207;-39
2021/05/11 03:23:45;;;;;;;1.05;1.02;;;23.90;33.90;;;;;;5009713;28;20204;-42
2021/05/11 03:26:11;;;;;;;1.33;1.08;;;23.90;33.80;;;;;;5007703;28;20226;-42
2021/05/11 03:28:37;;;;;;;1.10;1.00;;;23.90;33.80;;;;;;5006159;28;20276;-43
2021/05/11 03:31:03;;;;;;;1.20;1.10;;;23.90;33.90;;;;;;5009622;28;20578;-45
2021/05/11 03:33:29;;;;;;;1.08;1.08;;;23.90;33.80;;;;;;5010749;28;20198;-39
2021/05/11 03:35:55;;;;;;;1.10;1.00;;;23.90;33.80;;;;;;5007926;28;20222;-40
2021/05/11 03:38:21;;;;;;;1.77;1.10;;;23.90;33.90;;;;;;5008212;28;20206;-40
2021/05/11 03:40:47;;;;;;;1.20;1.10;;;23.90;33.80;;;;;;5007146;28;20223;-45
2021/05/11 03:43:16;;;;;;;1.33;1.05;;;23.90;33.90;;;;;;5010834;28;20603;-42
2021/05/11 03:45:45;;;;;;;1.60;1.20;;;23.90;33.90;;;;;;5008247;28;20234;-39
2021/05/11 03:48:11;;;;;;;1.00;1.00;;;23.90;34.00;;;;;;5008295;28;20291;-44
2021/05/11 03:50:37;;;;;;;2.00;1.55;;;23.90;34.10;;;;;;5009173;28;20223;-41
2021/05/11 03:53:03;;;;;;;0.93;0.93;;;23.90;34.30;;;;;;5010249;28;20695;-40
2021/05/11 03:55:29;;;;;;;1.17;1.10;;;23.90;34.30;;;;;;5009402;28;20203;-44
2021/05/11 03:57:55;;;;;;;1.20;1.10;;;23.90;34.30;;;;;;5009682;28;20799;-46
2021/05/11 04:00:21;;;;;;;1.20;1.10;;;23.90;34.40;;;;;;5007259;28;20349;-42
2021/05/11 04:02:47;;;;;;;1.15;1.05;;;23.90;34.20;;;;;;5010837;28;20211;-40
2021/05/11 04:05:14;;;;;;;1.10;1.08;;;23.90;34.20;;;;;;5008054;28;20223;-39
2021/05/11 04:07:41;;;;;;;1.33;1.08;;;23.90;34.20;;;;;;5009903;28;20726;-42
2021/05/11 04:10:14;;;;;;;1.30;1.20;;;23.90;34.20;;;;;;5003206;28;20627;-42
2021/05/11 04:12:53;;;;;;;1.10;1.00;;;23.90;34.10;;;;;;5010903;28;20258;-43
2021/05/11 04:18:04;;;;;;;1.60;1.00;;;23.90;34.30;;;;;;5010314;28;20249;-45
2021/05/11 04:20:30;;;;;;;1.90;1.30;;;23.90;34.20;;;;;;5006677;28;20219;-39
2021/05/11 04:22:56;;;;;;;1.70;1.25;;;23.90;34.20;;;;;;5009965;28;20211;-39
2021/05/11 04:25:23;;;;;;;1.25;1.15;;;23.90;34.10;;;;;;5007534;28;20242;-39
2021/05/11 04:27:48;;;;;;;1.50;1.10;;;23.90;34.10;;;;;;5009983;28;20199;-42
2021/05/11 04:30:15;;;;;;;1.75;1.17;;;23.90;34.00;;;;;;5008395;28;20288;-46
2021/05/11 04:32:41;;;;;;;1.30;1.20;;;23.90;34.00;;;;;;5011721;28;20209;-43
2021/05/11 04:35:07;;;;;;;1.10;1.00;;;23.90;33.90;;;;;;5010090;28;20203;-40
2021/05/11 04:37:33;;;;;;;1.10;1.10;;;23.90;34.10;;;;;;5013732;28;20207;-43
2021/05/11 04:39:59;;;;;;;1.08;1.08;;;23.90;34.00;;;;;;5011653;28;20253;-42
2021/05/11 04:42:25;;;;;;;1.88;1.10;;;23.90;34.00;;;;;;5008509;28;20294;-40
2021/05/11 04:44:52;;;;;;;1.27;1.02;;;23.90;34.10;;;;;;5010678;28;20300;-40
2021/05/11 04:47:20;;;;;;;0.90;0.90;;;23.90;34.00;;;;;;5011321;28;20285;-42
2021/05/11 04:49:46;;;;;;;1.05;1.05;;;23.90;33.90;;;;;;5011941;28;20223;-43
2021/05/11 04:52:12;;;;;;;1.50;1.40;;;23.90;33.80;;;;;;5010677;28;20309;-39
2021/05/11 04:54:38;;;;;;;1.10;1.00;;;23.90;33.90;;;;;;5012948;28;20211;-48
2021/05/11 04:57:04;;;;;;;1.65;1.15;;;23.90;34.10;;;;;;5011133;28;20202;-41
2021/05/11 04:59:30;;;;;;;1.35;1.00;;;23.90;34.10;;;;;;5009684;28;20270;-39
2021/05/11 05:01:57;;;;;;;1.10;1.10;;;23.90;34.10;;;;;;5000422;28;20231;-48
2021/05/11 05:04:23;;;;;;;0.98;0.98;;;23.90;34.20;;;;;;5003367;28;20249;-39
2021/05/11 05:06:49;;;;;;;1.02;0.98;;;23.90;34.70;;;;;;5010510;28;20207;-43
2021/05/11 05:09:15;;;;;;;1.13;1.02;;;23.90;34.40;;;;;;5012989;28;20223;-42
2021/05/11 05:11:41;;;;;;;1.27;1.17;;;23.90;34.20;;;;;;5010831;28;20203;-43
2021/05/11 05:14:07;;;;;;;1.30;1.20;;;23.90;34.30;;;;;;5012609;28;20203;-40
2021/05/11 05:16:33;;;;;;;1.98;1.30;;;23.90;34.40;;;;;;5010615;28;20237;-40
2021/05/11 05:18:59;;;;;;;1.90;1.00;;;23.90;34.40;;;;;;5012970;28;20215;-47
2021/05/11 05:21:25;;;;;;;2.05;1.08;;;23.90;34.60;;;;;;5008351;28;20195;-43
2021/05/11 05:24:00;;;;;;;1.27;1.00;;;23.90;34.70;;;;;;5008670;28;20214;-40
2021/05/11 05:26:28;;;;;;;1.05;1.00;;;23.90;34.70;;;;;;5010933;28;20234;-42
2021/05/11 05:28:55;;;;;;;1.00;1.00;;;23.90;34.70;;;;;;5008633;28;20281;-46
2021/05/11 05:31:21;;;;;;;1.48;0.90;;;23.90;34.90;;;;;;5004686;28;20203;-43
2021/05/11 05:33:47;;;;;;;2.30;1.02;;;23.90;35.00;;;;;;5012684;28;20243;-39
2021/05/11 05:36:13;;;;;;;1.30;1.20;;;24.00;35.00;;;;;;5011186;28;20302;-47
2021/05/11 05:38:41;;;;;;;1.50;1.00;;;23.90;35.30;;;;;;5010321;28;20723;-39
2021/05/11 05:41:09;;;;;;;1.02;1.00;;;23.90;35.40;;;;;;5006583;28;21344;-43
2021/05/11 05:43:35;;;;;;;1.55;1.20;;;23.90;35.40;;;;;;5006811;28;20208;-43
2021/05/11 05:46:01;;;;;;;2.55;1.63;;;23.90;35.60;;;;;;5009762;28;20234;-44
2021/05/11 05:48:27;;;;;;;1.85;1.13;;;23.90;35.60;;;;;;4993287;28;20228;-42
2021/05/11 05:50:55;;;;;;;3.20;1.00;;;23.90;35.60;;;;;;4997695;28;20200;-39
2021/05/11 05:53:25;;;;;;;1.60;1.10;;;23.90;35.60;;;;;;5010405;28;20203;-39
2021/05/11 05:55:51;;;;;;;1.90;1.10;;;23.90;35.40;;;;;;5005769;28;20222;-41
2021/05/11 05:58:17;;;;;;;1.42;1.10;;;23.90;35.50;;;;;;5006539;28;20691;-45
2021/05/11 06:00:43;;;;;;;1.00;1.00;;;23.90;35.30;;;;;;5008029;28;20222;-46
2021/05/11 06:03:20;;;;;;;0.90;0.90;;;24.00;35.30;;;;;;5008708;28;20203;-42
2021/05/11 06:05:46;;;;;;;1.70;1.00;;;24.00;35.00;;;;;;5010868;28;20231;-42
2021/05/11 06:08:12;;;;;;;2.05;1.00;;;24.00;34.90;;;;;;5010522;28;20239;-42
2021/05/11 06:10:38;;;;;;;1.38;1.27;;;23.90;34.70;;;;;;5011175;28;20203;-40
2021/05/11 06:13:08;;;;;;;1.30;1.20;;;24.00;35.50;;;;;;5008242;28;20206;-40
2021/05/11 06:18:18;;;;;;;2.47;0.88;;;24.00;34.70;;;;;;5011270;28;20218;-45
2021/05/11 06:20:44;;;;;;;1.17;1.10;;;24.00;34.60;;;;;;5010515;28;20203;-45
2021/05/11 06:23:10;;;;;;;1.13;1.00;;;24.00;34.60;;;;;;5009302;28;20241;-43
2021/05/11 06:25:38;;;;;;;1.20;1.10;;;24.00;34.40;;;;;;5009318;28;20235;-39
2021/05/11 06:28:04;;;;;;;1.35;1.02;;;24.00;34.40;;;;;;5009893;28;20227;-41
2021/05/11 06:30:30;;;;;;;1.20;1.00;;;24.00;34.20;;;;;;5010199;28;20250;-46
2021/05/11 06:32:56;;;;;;;1.20;1.10;;;24.00;34.40;;;;;;5008289;28;20670;-47
2021/05/11 06:35:25;;;;;;;1.17;1.08;;;24.00;34.20;;;;;;5008586;28;20214;-39
2021/05/11 06:37:51;;;;;;;0.98;0.98;;;24.00;34.20;;;;;;5008998;28;20195;-46
2021/05/11 06:40:18;;;;;;;1.48;1.10;;;23.90;34.20;;;;;;5010185;28;20588;-44
2021/05/11 06:42:44;;;;;;;1.77;1.20;;;24.00;34.20;;;;;;5009736;28;20260;-48
2021/05/11 06:45:22;;;;;;;1.55;1.30;;;24.00;34.20;;;;;;5008745;28;20223;-52
2021/05/11 06:47:58;;;;;;;1.00;1.00;;;24.00;34.30;;;;;;5008859;28;20597;-48
2021/05/11 06:53:12;;;;;;;1.10;1.00;;;24.00;34.30;;;;;;5006123;28;20199;-49
2021/05/11 06:55:40;;;;;;;1.25;0.98;;;24.00;34.20;;;;;;5006266;28;20306;-39
2021/05/11 06:58:07;;;;;;;1.83;0.98;;;24.00;34.20;;;;;;5004464;28;20234;-44
2021/05/11 07:00:33;;;;;;;1.77;1.20;;;24.00;35.30;;;;;;5012065;28;20280;-41
2021/05/11 07:02:59;;;;;;;2.85;1.30;;;24.00;35.10;;;;;;5002631;28;20249;-46
2021/05/11 07:05:28;;;;;;;1.67;1.10;;;24.00;34.90;;;;;;5013732;28;20248;-40
2021/05/11 07:07:54;;;;;;;1.77;1.00;;;24.00;34.70;;;;;;5012226;28;20835;-45
2021/05/11 07:10:21;;;;;;;0.98;0.98;;;24.00;35.90;;;;;;5008825;28;20199;-39
2021/05/11 07:15:31;;;;;;;4.63;1.90;;;24.00;34.80;;;;;;5009475;28;20190;-48
2021/05/11 07:17:57;;;;;;;5.15;1.63;;;23.50;34.40;;;;;;5008545;28;20214;-42
2021/05/11 07:20:23;;;;;;;3.22;1.73;;;23.20;35.70;;;;;;5000216;28;20207;-44
2021/05/11 07:22:49;;;;;;;4.85;1.52;;;23.40;35.40;;;;;;5002366;28;20218;-42
2021/05/11 07:25:15;;;;;;;1.42;1.30;;;23.60;34.20;;;;;;5000333;28;20246;-46
2021/05/11 07:28:05;;;;;;;2.40;1.20;;;23.50;35.40;;;;;;5001385;28;20234;-39
2021/05/11 07:30:33;;;;;;;2.22;1.13;;;23.60;34.70;;;;;;5000710;28;20207;-39
2021/05/11 07:32:59;;;;;;;1.95;1.40;;;23.60;33.80;;;;;;5000301;28;20569;-45
2021/05/11 07:35:25;;;;;;;2.83;1.20;;;23.60;33.50;;;;;;5003609;28;20276;-45
2021/05/11 07:37:51;;;;;;;1.48;1.30;;;23.60;33.40;;;;;;5010107;28;20222;-46
2021/05/11 07:40:17;;;;;;;1.23;1.13;;;23.60;32.90;;;;;;5007611;28;20601;-48
2021/05/11 07:42:43;;;;;;;3.20;1.30;;;23.60;33.10;;;;;;5009794;28;20449;-41
2021/05/11 07:45:11;;;;;;;1.20;1.10;;;23.60;32.80;;;;;;5008188;28;20219;-44
2021/05/11 07:47:55;;;;;;;2.15;1.17;;;23.60;32.90;;;;;;5004102;28;20199;-45
2021/05/11 07:50:39;;;;;;;2.28;1.20;;;23.60;32.80;;;;;;5008392;28;20214;-45
2021/05/11 08:04:26;;;;;;;2.45;1.15;;;24.00;34.40;;;;;;5010422;28;20245;-46
2021/05/11 08:09:59;;;;;;;0.90;0.90;;;24.00;34.60;;;;;;5006828;28;20359;-43
2021/05/11 08:15:19;;;;;;;0.70;0.70;;;24.10;34.80;;;;;;5017651;28;20193;-46
2021/05/11 08:17:49;;;;;;;1.33;0.90;;;24.10;35.20;;;;;;5012088;28;20258;-45
2021/05/11 08:20:31;;;;;;;1.85;0.88;;;24.10;34.60;;;;;;5009832;28;20199;-47
2021/05/11 08:23:14;;;;;;;1.45;0.90;;;24.10;35.10;;;;;;5011428;28;20199;-42
2021/05/11 08:28:24;;;;;;;1.10;0.80;;;24.00;34.80;;;;;;5009624;28;20268;-44
2021/05/11 08:30:50;;;;;;;0.88;0.80;;;24.00;34.40;;;;;;5007738;28;20200;-41
2021/05/11 08:33:16;;;;;;;0.80;0.80;;;24.00;34.50;;;;;;5010764;28;20199;-45
2021/05/11 08:35:42;;;;;;;0.80;0.80;;;24.00;34.40;;;;;;5011513;28;20210;-42
2021/05/11 08:38:08;;;;;;;1.10;1.00;;;24.00;34.30;;;;;;5011632;28;20246;-48
2021/05/11 08:40:34;;;;;;;2.10;1.10;;;24.00;35.80;;;;;;5008864;28;20623;-42
2021/05/11 08:43:02;;;;;;;4.82;1.00;;;24.00;35.20;;;;;;5011124;28;20270;-47
2021/05/11 08:45:28;;;;;;;6.20;1.27;;;24.10;35.80;;;;;;5007338;28;20255;-40
2021/05/11 08:47:54;;;;;;;5.22;1.30;;;24.10;36.30;;;;;;5009665;28;20227;-45
2021/05/11 08:50:21;;;;;;;5.65;1.38;;;24.10;36.80;;;;;;5012586;28;20218;-42
2021/05/11 08:53:10;;;;;;;4.00;1.23;;;24.10;36.10;;;;;;5011156;28;20298;-46
2021/05/11 09:06:44;;;;;;;1.35;0.90;;;24.00;36.00;;;;;;5001727;28;20261;-43
2021/05/11 09:09:19;;;;;;;1.00;0.90;;;24.00;35.80;;;;;;5003511;28;20309;-42
2021/05/11 09:23:39;;;;;;;1.85;1.08;;;24.20;37.10;;;;;;4980784;28;20235;-44
2021/05/11 09:26:11;;;;;;;2.47;0.90;;;24.20;36.50;;;;;;5004553;28;20251;-50
2021/05/11 09:28:42;;;;;;;1.63;1.02;;;24.20;36.70;;;;;;5003090;28;20707;-41
2021/05/11 09:31:18;;;;;;;1.52;0.90;;;24.20;36.80;;;;;;5003895;28;20270;-44
2021/05/11 09:33:51;;;;;;;1.08;0.98;;;24.20;37.20;;;;;;4997085;28;20261;-40
2021/05/11 09:55:40;;;;;;;2.92;1.02;;;24.20;36.00;;;;;;5006542;28;20722;-58
2021/05/11 09:58:13;;;;;;;2.70;1.10;;;24.20;36.30;;;;;;5002390;28;20227;-57
2021/05/11 10:13:00;;;;;;;2.08;1.08;;;24.30;36.80;;;;;;4948515;28;20289;-48
2021/05/11 10:31:36;;;;;;;1.10;0.90;;;24.20;37.20;;;;;;5011316;28;20512;-57
2021/05/11 10:37:20;;;;;;;1.88;1.17;;;24.20;37.10;;;;;;4992778;28;20323;-53
2021/05/11 10:39:51;;;;;;;2.47;1.30;;;24.10;36.60;;;;;;5007488;28;20214;-51
2021/05/11 10:47:44;;;;;;;5.30;1.30;;;24.20;37.60;;;;;;5009486;28;20230;-43
2021/05/11 10:50:10;;;;;;;7.15;1.65;;;24.20;38.10;;;;;;5010037;28;20214;-41
2021/05/11 10:52:41;;;;;;;7.28;1.65;;;24.20;38.30;;;;;;5010844;28;20282;-47
2021/05/11 10:55:09;;;;;;;4.90;1.48;;;24.20;37.70;;;;;;5009849;28;20207;-43
2021/05/11 10:57:39;;;;;;;17.80;2.53;;;24.30;37.30;;;;;;5010810;28;20219;-53
2021/05/11 11:00:15;;;;;;;5.53;1.60;;;24.20;37.50;;;;;;5009073;28;20588;-54
2021/05/11 11:02:47;;;;;;;6.93;1.73;;;;;;;;;;5010664;28;20209;-49
2021/05/11 11:05:13;;;;;;;12.02;1.67;;;24.30;37.50;;;;;;5007288;28;20612;-46
2021/05/11 11:07:40;;;;;;;4.80;1.58;;;24.30;38.00;;;;;;5011693;28;20222;-44
2021/05/11 11:10:07;;;;;;;6.90;1.48;;;24.30;37.20;;;;;;5007821;28;20203;-48
2021/05/11 11:12:35;;;;;;;4.45;1.80;;;24.30;37.00;;;;;;5010142;28;20609;-51
2021/05/11 11:15:01;;;;;;;2.35;1.00;;;24.30;36.30;;;;;;5011776;28;20221;-43
2021/05/11 11:17:26;;;;;;;3.60;1.40;;;24.30;36.10;;;;;;5006774;28;20318;-45
2021/05/11 11:19:55;;;;;;;5.60;1.30;;;24.30;36.80;;;;;;5016545;28;20207;-44
2021/05/11 11:25:05;;;;;;;4.78;0.90;;;24.30;36.30;;;;;;5001713;28;20225;-45
2021/05/11 11:27:31;;;;;;;3.20;1.45;;;24.20;36.10;;;;;;5006201;28;20612;-42
2021/05/11 11:29:57;;;;;;;2.85;1.25;;;24.20;35.90;;;;;;5006731;28;20613;-42
2021/05/11 11:32:23;;;;;;;2.58;0.95;;;24.20;36.00;;;;;;5010013;28;20218;-41
2021/05/11 11:34:49;;;;;;;3.20;1.10;;;24.20;36.00;;;;;;5008811;28;20199;-44
2021/05/11 11:37:16;;;;;;;2.00;1.02;;;24.20;36.00;;;;;;5007587;28;20574;-46
2021/05/11 11:39:42;;;;;;;1.17;0.85;;;24.20;35.90;;;;;;5008744;28;20731;-45
2021/05/11 11:42:08;;;;;;;2.22;0.93;;;24.20;35.70;;;;;;5010112;28;20214;-50
2021/05/11 11:44:36;;;;;;;2.70;1.20;;;24.20;35.70;;;;;;5009389;28;20207;-48
2021/05/11 11:47:02;;;;;;;1.52;1.08;;;24.20;35.60;;;;;;5010585;28;20514;-47
2021/05/11 11:49:29;;;;;;;1.90;0.93;;;24.20;35.90;;;;;;5008942;28;20199;-49
2021/05/11 11:52:00;;;;;;;1.88;1.23;;;24.20;35.80;;;;;;5009634;28;20203;-47
2021/05/11 11:54:33;;;;;;;3.88;1.30;;;24.20;35.60;;;;;;5008519;28;20211;-48
2021/05/11 11:59:43;;;;;;;1.10;1.00;;;24.20;35.60;;;;;;5007739;28;20619;-49
2021/05/11 12:02:09;;;;;;;1.45;0.90;;;24.20;35.60;;;;;;5007664;28;20207;-46
2021/05/11 12:04:36;;;;;;;1.88;1.10;;;24.20;35.40;;;;;;5007688;28;20253;-47
2021/05/11 12:07:04;;;;;;;1.52;0.85;;;24.20;35.40;;;;;;5004434;28;20235;-41
2021/05/11 12:09:30;;;;;;;1.98;0.85;;;24.20;35.20;;;;;;5008581;28;20205;-47
2021/05/11 12:11:59;;;;;;;2.78;1.02;;;24.20;35.20;;;;;;5010132;28;20553;-48
2021/05/11 12:14:25;;;;;;;1.08;0.98;;;24.30;35.20;;;;;;5004847;28;20301;-52
2021/05/11 12:16:51;;;;;;;1.67;0.93;;;24.20;35.20;;;;;;5009833;28;20231;-44
2021/05/11 12:19:19;;;;;;;1.48;1.10;;;24.20;35.50;;;;;;5010056;28;20552;-54
2021/05/11 12:21:45;;;;;;;1.85;1.00;;;24.20;35.20;;;;;;5009735;28;20199;-44
2021/05/11 12:24:11;;;;;;;1.25;1.10;;;24.30;35.40;;;;;;5007714;28;20257;-48
2021/05/11 12:26:37;;;;;;;2.10;1.08;;;24.30;35.40;;;;;;5007756;28;20249;-42
2021/05/11 12:29:02;;;;;;;1.50;1.00;;;24.30;35.40;;;;;;5009171;28;20211;-41
2021/05/11 12:31:28;;;;;;;2.88;1.48;;;24.30;35.60;;;;;;5009058;28;20222;-50
2021/05/11 12:33:54;;;;;;;1.13;1.00;;;24.30;35.50;;;;;;5009103;28;20203;-43
2021/05/11 12:36:21;;;;;;;2.05;1.00;;;24.30;35.40;;;;;;5009474;28;20293;-41
2021/05/11 12:38:48;;;;;;;1.33;1.00;;;24.30;35.20;;;;;;5010008;28;20203;-43
2021/05/11 12:41:25;;;;;;;1.88;1.10;;;24.30;35.10;;;;;;5008927;28;20223;-54
2021/05/11 12:43:52;;;;;;;1.85;1.00;;;24.30;35.30;;;;;;5008177;28;20262;-46
2021/05/11 12:46:18;;;;;;;2.92;0.95;;;24.30;35.40;;;;;;5009891;28;20231;-47
2021/05/11 12:48:44;;;;;;;1.35;1.25;;;24.30;35.40;;;;;;5011394;28;20218;-41
2021/05/11 12:51:10;;;;;;;1.73;1.00;;;24.30;35.50;;;;;;5011570;28;20567;-44
2021/05/11 12:53:38;;;;;;;1.50;1.02;;;24.30;35.20;;;;;;5010014;28;20202;-44
2021/05/11 12:56:18;;;;;;;2.40;0.93;;;24.30;35.40;;;;;;5005811;28;20359;-44
2021/05/11 12:58:58;;;;;;;1.58;1.00;;;24.30;35.30;;;;;;5008366;28;20256;-45
2021/05/11 13:01:25;;;;;;;1.33;1.10;;;24.30;35.40;;;;;;5007674;28;20203;-43
2021/05/11 13:04:06;;;;;;;2.28;1.35;;;24.30;35.50;;;;;;5013281;28;20234;-45
2021/05/11 13:09:34;;;;;;;2.95;1.10;;;24.30;35.80;;;;;;5004522;28;20210;-46
2021/05/11 13:19:43;;;;;;;1.73;1.00;;;24.30;35.40;;;;;;5006336;28;20265;-50
2021/05/11 13:20:29;;;;;;;1.95;1.38;;;24.30;35.30;;;;;;5011965;28;20211;-49
2021/05/11 13:23:05;;;;;;;2.33;1.00;;;24.30;36.70;;;;;;5011449;28;20214;-46
2021/05/11 13:25:34;;;;;;;4.00;1.25;;;24.30;36.00;;;;;;5007349;28;20222;-43
2021/05/11 13:28:07;;;;;;;2.70;1.10;;;24.30;36.70;;;;;;5010177;28;20218;-46
2021/05/11 13:30:49;;;;;;;1.92;1.20;;;24.30;36.00;;;;;;5010858;28;20610;-48
2021/05/11 13:33:29;;;;;;;2.28;1.10;;;24.30;36.90;;;;;;5012756;28;20253;-47
2021/05/11 13:35:55;;;;;;;1.77;1.30;;;24.30;35.90;;;;;;5011722;28;20231;-46
2021/05/11 13:38:21;;;;;;;3.70;1.67;;;24.40;36.70;;;;;;5011399;28;20237;-49
2021/05/11 13:40:47;;;;;;;3.00;1.38;;;24.30;36.80;;;;;;5008983;28;20576;-45
2021/05/11 13:43:13;;;;;;;4.75;1.60;;;24.30;36.60;;;;;;5014985;28;20207;-41
2021/05/11 13:45:39;;;;;;;5.28;1.73;;;24.40;36.90;;;;;;5017842;28;20229;-42
2021/05/11 13:48:07;;;;;;;1.95;1.45;;;24.40;37.10;;;;;;5010437;28;20203;-42
2021/05/11 13:50:49;;;;;;;4.30;1.52;;;24.30;36.40;;;;;;5011683;28;20203;-40
2021/05/11 13:53:15;;;;;;;5.88;1.55;;;24.30;36.20;;;;;;5002187;28;20381;-40
2021/05/11 13:55:50;;;;;;;2.78;1.20;;;24.30;36.50;;;;;;5008912;28;20586;-40
2021/05/11 14:03:45;;;;;;;2.33;1.20;;;24.30;35.60;;;;;;5010166;28;20197;-46
2021/05/11 14:06:11;;;;;;;3.58;1.20;;;24.30;35.70;;;;;;5009645;28;20234;-41
2021/05/11 14:08:37;;;;;;;2.70;1.10;;;24.30;35.60;;;;;;5010816;28;20623;-41
2021/05/11 14:11:03;;;;;;;1.88;1.25;;;24.30;35.40;;;;;;5012225;28;20207;-40
2021/05/11 14:13:29;;;;;;;2.78;1.40;;;24.30;35.50;;;;;;5010329;28;20207;-40
2021/05/11 14:15:55;;;;;;;2.25;1.23;;;24.30;35.50;;;;;;5010339;28;20219;-40
2021/05/11 14:18:21;;;;;;;2.20;1.15;;;24.30;35.50;;;;;;5011051;28;20246;-41
2021/05/11 14:20:47;;;;;;;3.15;1.00;;;24.20;36.10;;;;;;5010473;28;20575;-43
2021/05/11 14:23:13;;;;;;;1.52;1.10;;;24.30;35.40;;;;;;5009897;28;20210;-41
2021/05/11 14:25:39;;;;;;;3.35;1.30;;;24.30;35.40;;;;;;5008790;28;20231;-40
2021/05/11 14:28:05;;;;;;;2.13;1.20;;;24.20;35.30;;;;;;5010855;28;20271;-41
2021/05/11 14:30:31;;;;;;;3.65;1.55;;;24.30;35.30;;;;;;5009742;28;20213;-40
2021/05/11 14:32:57;;;;;;;2.15;1.05;;;24.30;35.20;;;;;;5010283;28;20573;-42
2021/05/11 14:35:23;;;;;;;2.22;1.30;;;24.30;35.50;;;;;;5006463;28;20207;-47
2021/05/11 14:37:49;;;;;;;3.22;1.23;;;24.30;35.20;;;;;;5008696;28;20211;-43
2021/05/11 14:40:16;;;;;;;2.67;1.30;;;24.30;35.40;;;;;;5010409;28;20203;-42
2021/05/11 14:42:42;;;;;;;2.00;1.02;;;24.30;35.50;;;;;;5010712;28;20199;-44
2021/05/11 14:45:08;;;;;;;2.08;1.10;;;24.30;35.30;;;;;;5010538;28;20204;-43
2021/05/11 14:47:34;;;;;;;1.52;1.20;;;24.30;35.40;;;;;;5011067;28;20644;-42
2021/05/11 14:50:00;;;;;;;1.67;0.98;;;24.20;35.10;;;;;;5009199;28;20210;-47
2021/05/11 14:52:27;;;;;;;2.70;1.13;;;24.30;35.30;;;;;;5011439;28;20203;-40
2021/05/11 14:54:53;;;;;;;2.53;1.30;;;24.20;35.20;;;;;;5009048;28;20281;-48
2021/05/11 14:57:19;;;;;;;1.70;1.20;;;24.20;35.30;;;;;;5009598;28;20644;-42
2021/05/11 14:59:45;;;;;;;1.60;1.15;;;24.20;35.10;;;;;;5009757;28;20253;-44
2021/05/11 15:02:12;;;;;;;2.90;1.30;;;24.30;35.50;;;;;;5008298;28;20199;-47
2021/05/11 15:04:38;;;;;;;2.28;1.10;;;24.30;35.50;;;;;;5010546;28;20302;-44
2021/05/11 15:07:04;;;;;;;2.75;1.20;;;24.30;35.80;;;;;;5008994;28;20254;-40
2021/05/11 15:09:30;;;;;;;4.63;1.40;;;24.20;35.50;;;;;;5006924;28;20317;-48
2021/05/11 15:11:56;;;;;;;4.00;1.10;;;24.30;36.90;;;;;;5012508;28;20195;-45
2021/05/11 15:14:22;;;;;;;5.60;1.58;;;24.30;36.10;;;;;;4990897;28;20207;-49
2021/05/11 15:16:57;;;;;;;6.53;1.80;;;24.30;36.20;;;;;;5007735;28;20230;-47
2021/05/11 15:19:23;;;;;;;2.63;1.58;;;24.30;36.50;;;;;;5010619;28;20306;-45
2021/05/11 15:21:49;;;;;;;3.72;1.75;;;24.30;37.10;;;;;;5010024;28;20203;-42
2021/05/11 15:24:15;;;;;;;3.25;1.50;;;24.30;36.70;;;;;;5010930;28;20198;-42
2021/05/11 15:26:41;;;;;;;3.42;1.40;;;24.30;36.10;;;;;;5008054;28;20687;-43
2021/05/11 15:29:07;;;;;;;5.60;1.45;;;24.30;36.40;;;;;;5011797;28;20257;-43
2021/05/11 15:31:33;;;;;;;2.33;1.40;;;24.20;35.70;;;;;;4994089;28;20580;-44
2021/05/11 15:33:59;;;;;;;2.30;1.60;;;24.20;36.50;;;;;;5009520;28;20230;-42
2021/05/11 15:36:25;;;;;;;2.53;1.30;;;24.30;36.00;;;;;;5008778;28;20591;-39
2021/05/11 15:38:51;;;;;;;5.40;2.00;;;24.30;35.70;;;;;;5010005;28;20207;-39
2021/05/11 15:41:19;;;;;;;4.90;1.58;;;24.30;35.50;;;;;;5009891;28;20630;-47